Florimax — CUMI8 — position and weather

sailwx.info

Track history (hours):
 
Tides and Currents Weather Stations Pressure Air Temp Water Temp Dewpoint Dewpoint Depression Visibility Wind Speed Wind Dir Waves Ship Positions

Florimax

Last reported at 2018-Feb-20 04:00 UTC. Time now 2018-Feb-20 04:21 UTC.
Position N 37°43' W 009°09'.

Length 24 m.

Type: Fishing. MMSI: 263412470.

Date/timePositionNaut miles runAvg speedWind from/ knotsBaromVisibWave heightAir tempDewpointWater temp
2018-Feb-20 04:00N 37°43' W 009°09'0 0.4
2018-Feb-20 02:42N 37°43' W 009°09'5 1.4
2018-Feb-19 23:13N 37°48' W 009°08'1 3.1
2018-Feb-19 22:56N 37°49' W 009°08'1 3.0
2018-Feb-19 22:30N 37°50' W 009°08'2 3.1
2018-Feb-19 22:00N 37°51' W 009°08'1 2.9
2018-Feb-19 21:30N 37°53' W 009°08'2 3.3
2018-Feb-19 21:00N 37°51' W 009°09'0 0.5
2018-Feb-19 20:30N 37°51' W 009°08'1 2.8
2018-Feb-19 20:00N 37°50' W 009°08'1 2.7
2018-Feb-19 19:30N 37°48' W 009°08'1 2.7
2018-Feb-19 18:59N 37°47' W 009°08'2 3.2
2018-Feb-19 18:30N 37°45' W 009°09'6 2.3
2018-Feb-19 15:53N 37°51' W 009°13'3 0.5
2018-Feb-19 09:52N 37°54' W 009°14'1 2.7
2018-Feb-19 09:30N 37°53' W 009°14'2 3.0
2018-Feb-19 08:59N 37°51' W 009°13'3 5.8
2018-Feb-19 08:24N 37°52' W 009°09'0 0.9
2018-Feb-19 08:00N 37°52' W 009°09'1 3.0
2018-Feb-19 07:30N 37°51' W 009°08'1 2.8
2018-Feb-19 07:00N 37°49' W 009°08'1 2.9
2018-Feb-19 06:30N 37°48' W 009°08'1 2.8
2018-Feb-19 06:00N 37°46' W 009°08'2 3.1
2018-Feb-19 05:30N 37°45' W 009°09'3 2.7
2018-Feb-19 04:20N 37°46' W 009°05'2 7.4
2018-Feb-19 04:00N 37°48' W 009°03'4 7.8
2018-Feb-19 03:30N 37°51' W 008°60'4 7.8
2018-Feb-19 03:00N 37°53' W 008°56'4 7.5
2018-Feb-19 02:30N 37°56' W 008°53'1 2.1
2018-Feb-19 02:00N 37°57' W 008°52'0 0.0
2018-Feb-19 01:30N 37°57' W 008°52'0 0.0
2018-Feb-19 01:00N 37°57' W 008°52'0 0.0
2018-Feb-19 00:30N 37°57' W 008°52'0 0.0
2018-Feb-19 00:00N 37°57' W 008°52'0 0.0
2018-Feb-18 23:30N 37°57' W 008°52'0 0.0
2018-Feb-18 23:00N 37°57' W 008°52'0 0.0
2018-Feb-18 22:30N 37°57' W 008°52'0 0.0
2018-Feb-18 22:00N 37°57' W 008°52'0 0.0
2018-Feb-18 21:29N 37°57' W 008°52'0 0.0
2018-Feb-18 21:00N 37°57' W 008°52'0 0.0
2018-Feb-18 20:30N 37°57' W 008°52'0 0.0
2018-Feb-18 20:00N 37°57' W 008°52'0 0.0
2018-Feb-18 19:30N 37°57' W 008°52'0 0.0
2018-Feb-18 19:00N 37°57' W 008°52'2 5.0
2018-Feb-18 18:30N 37°56' W 008°55'4 8.5
2018-Feb-18 18:00N 37°54' W 008°60'4 8.3
2018-Feb-18 17:30N 37°53' W 009°05'3 5.7
2018-Feb-18 17:00N 37°53' W 009°08'1 1.9
2018-Feb-18 16:30N 37°52' W 009°09'1 2.8
2018-Feb-18 16:00N 37°50' W 009°08'1 2.9
2018-Feb-18 15:30N 37°49' W 009°08'3 2.7
2018-Feb-18 14:25N 37°46' W 009°09'0 0.5
2018-Feb-18 13:57N 37°46' W 009°09'2 2.4
2018-Feb-18 13:01N 37°48' W 009°08'0 3.0
2018-Feb-18 13:00N 37°48' W 009°08'1 3.0
2018-Feb-18 12:30N 37°49' W 009°08'1 2.9
2018-Feb-18 12:00N 37°51' W 009°09'2 3.8
2018-Feb-18 11:30N 37°53' W 009°09'0 0.9
2018-Feb-18 11:00N 37°53' W 009°09'1 2.8
2018-Feb-18 10:30N 37°51' W 009°09'1 2.7
2018-Feb-18 10:00N 37°50' W 009°09'1 2.7
2018-Feb-18 09:30N 37°49' W 009°08'1 0.8
2018-Feb-18 08:33N 37°48' W 009°08'0 3.0
2018-Feb-18 08:30N 37°48' W 009°08'1 3.0
2018-Feb-18 08:00N 37°49' W 009°08'2 3.1
2018-Feb-18 07:30N 37°51' W 009°09'2 3.1
2018-Feb-18 07:00N 37°52' W 009°09'1 2.1
2018-Feb-18 06:30N 37°53' W 009°10'0 0.4
2018-Feb-18 06:00N 37°54' W 009°10'0 0.4
2018-Feb-18 05:30N 37°54' W 009°09'1 2.1
2018-Feb-18 05:00N 37°53' W 009°09'0 0.2
2018-Feb-18 04:30N 37°53' W 009°09'0 0.8
2018-Feb-18 04:00N 37°53' W 009°09'0 0.6
2018-Feb-18 03:30N 37°53' W 009°09'0 0.6
2018-Feb-18 03:00N 37°53' W 009°09'2 3.2
2018-Feb-18 02:30N 37°55' W 009°09'2 3.3
2018-Feb-18 02:00N 37°57' W 009°09'2 3.2
2018-Feb-18 01:30N 37°58' W 009°09'2 3.1
2018-Feb-18 01:00N 37°60' W 009°09'2 3.2
2018-Feb-18 00:30N 38°01' W 009°09'2 3.0
2018-Feb-18 00:00N 38°03' W 009°09'1 2.4
2018-Feb-17 23:30N 38°04' W 009°09'1 1.2
2018-Feb-17 23:00N 38°04' W 009°09'2 3.1
2018-Feb-17 22:29N 38°02' W 009°09'1 3.0
2018-Feb-17 22:00N 38°01' W 009°10'1 3.0
2018-Feb-17 21:30N 37°59' W 009°10'2 3.0
2018-Feb-17 21:00N 37°58' W 009°10'2 3.1
2018-Feb-17 20:29N 37°56' W 009°11'2 3.1
2018-Feb-17 20:00N 37°55' W 009°11'2 4.2
2018-Feb-17 19:30N 37°53' W 009°12'2 3.3
2018-Feb-17 18:52N 37°52' W 009°09'0 1.2
2018-Feb-17 18:30N 37°51' W 009°09'1 2.8
2018-Feb-17 18:00N 37°50' W 009°09'1 2.8
2018-Feb-17 17:30N 37°49' W 009°08'1 0.5
2018-Feb-17 16:24N 37°48' W 009°08'1 2.9
2018-Feb-17 16:00N 37°49' W 009°08'1 2.9
2018-Feb-17 15:30N 37°51' W 009°09'1 2.9
2018-Feb-17 15:00N 37°52' W 009°09'1 1.8
2018-Feb-17 14:30N 37°53' W 009°09'1 2.2
2018-Feb-17 14:00N 37°52' W 009°09'1 2.9
2018-Feb-17 13:30N 37°50' W 009°09'1 3.0
2018-Feb-17 13:00N 37°49' W 009°08'1 0.8
2018-Feb-17 11:48N 37°48' W 009°08'1 3.1
2018-Feb-17 11:26N 37°49' W 009°08'1 3.0
2018-Feb-17 11:00N 37°50' W 009°09'1 2.7
2018-Feb-17 10:30N 37°52' W 009°09'1 1.1
2018-Feb-17 10:00N 37°51' W 009°09'1 2.8
2018-Feb-17 09:30N 37°50' W 009°09'1 2.7
2018-Feb-17 09:00N 37°48' W 009°09'0 0.7
2018-Feb-17 08:21N 37°49' W 009°08'1 3.0
2018-Feb-17 08:00N 37°50' W 009°08'2 3.1
2018-Feb-17 07:30N 37°51' W 009°09'1 3.0
2018-Feb-17 07:00N 37°53' W 009°09'1 1.7
2018-Feb-17 06:30N 37°53' W 009°10'2 4.2
2018-Feb-17 06:00N 37°52' W 009°12'5 0.4
2018-Feb-16 19:38N 37°48' W 009°08'1 7.1
2018-Feb-16 19:30N 37°49' W 009°09'3 6.6
2018-Feb-16 19:00N 37°52' W 009°10'1 1.4
2018-Feb-16 18:30N 37°53' W 009°09'1 2.7
2018-Feb-16 18:00N 37°52' W 009°09'1 2.9
2018-Feb-16 17:30N 37°50' W 009°09'1 2.9
2018-Feb-16 17:00N 37°49' W 009°08'1 0.8
2018-Feb-16 15:51N 37°48' W 009°08'1 3.1
2018-Feb-16 15:29N 37°49' W 009°08'1 3.0
2018-Feb-16 15:00N 37°51' W 009°09'2 3.1
2018-Feb-16 14:30N 37°52' W 009°09'1 1.7
2018-Feb-16 14:00N 37°53' W 009°09'1 2.6
2018-Feb-16 13:30N 37°52' W 009°09'1 3.0
2018-Feb-16 13:00N 37°50' W 009°09'1 2.9
2018-Feb-16 12:30N 37°49' W 009°08'1 0.6
2018-Feb-16 11:22N 37°48' W 009°08'1 2.9
2018-Feb-16 10:59N 37°49' W 009°08'1 3.0
2018-Feb-16 10:30N 37°51' W 009°09'1 1.1
2018-Feb-16 10:00N 37°50' W 009°09'1 2.7
2018-Feb-16 09:30N 37°49' W 009°08'3 3.1
2018-Feb-16 08:26N 37°45' W 009°08'3 3.0
2018-Feb-16 07:22N 37°49' W 009°08'1 2.8
2018-Feb-16 07:00N 37°50' W 009°09'1 1.8
2018-Feb-16 06:30N 37°50' W 009°09'3 5.7
2018-Feb-16 06:00N 37°52' W 009°05'3 6.8
2018-Feb-16 05:30N 37°53' W 009°01'4 7.0
2018-Feb-16 05:00N 37°55' W 008°57'3 6.9
2018-Feb-16 04:30N 37°56' W 008°53'1 2.8
2018-Feb-16 04:00N 37°57' W 008°52'0 0.0
2018-Feb-16 03:30N 37°57' W 008°52'0 0.0
2018-Feb-16 03:00N 37°57' W 008°52'0 0.0
2018-Feb-16 02:30N 37°57' W 008°52'0 0.0
2018-Feb-16 02:00N 37°57' W 008°52'0 0.0
2018-Feb-16 01:30N 37°57' W 008°52'0 0.0
2018-Feb-16 01:00N 37°57' W 008°52'0 0.0
2018-Feb-16 00:30N 37°57' W 008°52'0 0.0
2018-Feb-16 00:00N 37°57' W 008°52'0 0.0
2018-Feb-15 23:30N 37°57' W 008°52'0 0.0
2018-Feb-15 23:00N 37°57' W 008°52'0 0.0
2018-Feb-15 22:30N 37°57' W 008°52'0 0.0
2018-Feb-15 22:00N 37°57' W 008°52'0 0.0
2018-Feb-15 21:30N 37°57' W 008°52'0 0.0
2018-Feb-15 21:00N 37°57' W 008°52'0 0.0
2018-Feb-15 20:30N 37°57' W 008°52'2 4.2
2018-Feb-15 20:00N 37°56' W 008°54'4 8.2
2018-Feb-15 19:30N 37°54' W 008°59'4 8.1
2018-Feb-15 19:00N 37°53' W 009°04'4 7.7
2018-Feb-15 18:30N 37°51' W 009°08'0 0.5
2018-Feb-15 18:00N 37°51' W 009°09'2 3.0
2018-Feb-15 17:29N 37°50' W 009°09'1 3.0
2018-Feb-15 17:00N 37°48' W 009°08'2 0.2
2018-Feb-15 06:50N 37°51' W 009°09'1 2.2
2018-Feb-15 06:30N 37°51' W 009°09'0 0.5
2018-Feb-15 06:00N 37°51' W 009°08'0 0.2
2018-Feb-15 05:29N 37°51' W 009°08'0 0.2
2018-Feb-15 05:00N 37°51' W 009°09'0 0.3
2018-Feb-15 04:30N 37°51' W 009°09'0 0.4
2018-Feb-15 04:00N 37°52' W 009°09'1 1.3
2018-Feb-15 03:30N 37°52' W 009°09'1 1.9
2018-Feb-15 03:00N 37°53' W 009°08'2 3.3
2018-Feb-15 02:30N 37°55' W 009°08'2 3.4
2018-Feb-15 02:00N 37°56' W 009°08'2 3.4
2018-Feb-15 01:30N 37°58' W 009°08'2 3.3
2018-Feb-15 01:00N 37°60' W 009°08'2 3.0
2018-Feb-15 00:30N 38°01' W 009°08'1 2.4
2018-Feb-15 00:00N 38°02' W 009°09'1 1.5
2018-Feb-14 23:30N 38°02' W 009°09'2 3.1
2018-Feb-14 23:00N 38°00' W 009°09'2 3.1
2018-Feb-14 22:30N 37°59' W 009°10'1 3.0
2018-Feb-14 22:00N 37°57' W 009°10'1 2.8
2018-Feb-14 21:30N 37°56' W 009°11'1 2.7
2018-Feb-14 21:00N 37°55' W 009°11'1 2.8
2018-Feb-14 20:30N 37°53' W 009°10'2 3.1
2018-Feb-14 20:00N 37°52' W 009°10'1 1.1
2018-Feb-14 19:30N 37°51' W 009°10'1 2.2
2018-Feb-14 18:55N 37°52' W 009°09'0 0.5
2018-Feb-14 18:30N 37°52' W 009°09'1 2.9
2018-Feb-14 18:00N 37°51' W 009°09'1 2.9
2018-Feb-14 17:30N 37°49' W 009°08'1 3.0
2018-Feb-14 17:00N 37°48' W 009°08'2 3.0
2018-Feb-14 16:27N 37°46' W 009°08'3 1.5
2018-Feb-14 14:49N 37°49' W 009°08'1 3.0
2018-Feb-14 14:30N 37°49' W 009°08'1 2.7
2018-Feb-14 14:00N 37°51' W 009°09'1 2.0
2018-Feb-14 13:30N 37°50' W 009°09'2 3.0
2018-Feb-14 13:00N 37°48' W 009°08'1 0.3
2018-Feb-14 11:12N 37°48' W 009°08'1 3.0
2018-Feb-14 11:00N 37°48' W 009°08'2 3.6
2018-Feb-14 10:29N 37°50' W 009°08'1 1.3
2018-Feb-14 10:00N 37°50' W 009°09'1 2.9
2018-Feb-14 09:30N 37°48' W 009°08'0 0.2
2018-Feb-14 07:52N 37°48' W 009°08'1 3.0
2018-Feb-14 07:30N 37°49' W 009°08'2 3.2
2018-Feb-14 07:00N 37°50' W 009°08'3 4.9
2018-Feb-14 06:28N 37°52' W 009°06'3 7.2
2018-Feb-14 06:00N 37°53' W 009°02'3 7.0
2018-Feb-14 05:30N 37°55' W 008°58'3 6.8
2018-Feb-14 05:00N 37°56' W 008°54'2 3.9
2018-Feb-14 04:30N 37°57' W 008°52'0 0.0
2018-Feb-14 04:00N 37°57' W 008°52'0 0.0
2018-Feb-14 03:30N 37°57' W 008°52'0 0.0
2018-Feb-14 03:00N 37°57' W 008°52'0 0.0
2018-Feb-14 02:30N 37°57' W 008°52'0 0.0
2018-Feb-14 02:00N 37°57' W 008°52'0 0.0
2018-Feb-14 01:30N 37°57' W 008°52'0 0.0
2018-Feb-14 01:00N 37°57' W 008°52'0 0.0
2018-Feb-14 00:30N 37°57' W 008°52'0 0.0
2018-Feb-14 00:00N 37°57' W 008°52'0 0.0
2018-Feb-13 23:30N 37°57' W 008°52'0 0.0
2018-Feb-13 23:00N 37°57' W 008°52'0 0.0
2018-Feb-13 22:30N 37°57' W 008°52'0 0.0
2018-Feb-13 22:00N 37°57' W 008°52'0 0.0
2018-Feb-13 21:30N 37°57' W 008°52'0 0.0
2018-Feb-13 21:00N 37°57' W 008°52'0 0.0
2018-Feb-13 20:30N 37°57' W 008°52'1 2.0
2018-Feb-13 20:00N 37°56' W 008°53'4 8.2
2018-Feb-13 19:29N 37°54' W 008°58'4 8.2
2018-Feb-13 19:00N 37°53' W 009°02'4 8.3
2018-Feb-13 18:30N 37°52' W 009°07'1 2.0
2018-Feb-13 18:00N 37°51' W 009°08'2 3.0
2018-Feb-13 17:30N 37°50' W 009°08'2 3.0
2018-Feb-13 17:00N 37°48' W 009°08'0 0.0
2018-Feb-13 14:50N 37°48' W 009°08'1 2.9
2018-Feb-13 14:30N 37°49' W 009°08'1 2.0
2018-Feb-13 14:00N 37°50' W 009°09'1 1.7
2018-Feb-13 13:30N 37°49' W 009°08'1 0.5
2018-Feb-13 11:04N 37°48' W 009°08'0 3.0
2018-Feb-13 11:00N 37°48' W 009°08'2 3.5
2018-Feb-13 10:30N 37°50' W 009°08'1 1.4
2018-Feb-13 10:00N 37°50' W 009°09'1 2.7
2018-Feb-13 09:30N 37°49' W 009°09'3 3.2
2018-Feb-13 08:36N 37°46' W 009°09'4 2.5
2018-Feb-13 07:09N 37°49' W 009°08'1 5.4
2018-Feb-13 07:00N 37°50' W 009°09'1 1.9
2018-Feb-13 06:30N 37°50' W 009°10'2 3.6
2018-Feb-13 05:59N 37°50' W 009°12'3 1.9
2018-Feb-13 04:22N 37°51' W 009°16'1 3.0
2018-Feb-13 04:00N 37°52' W 009°15'1 3.0
2018-Feb-13 03:30N 37°54' W 009°16'2 2.9
2018-Feb-13 02:59N 37°55' W 009°16'2 2.8
2018-Feb-13 02:14N 37°57' W 009°15'1 2.8
2018-Feb-13 02:00N 37°58' W 009°15'1 2.7
2018-Feb-13 01:30N 37°59' W 009°14'1 2.8
2018-Feb-13 01:00N 38°00' W 009°13'3 4.3
2018-Feb-13 00:22N 38°00' W 009°09'0 0.7
2018-Feb-13 00:00N 38°00' W 009°09'2 3.1
2018-Feb-12 23:30N 37°59' W 009°10'2 3.0
2018-Feb-12 23:00N 37°57' W 009°10'2 3.0
2018-Feb-12 22:26N 37°55' W 009°11'1 3.0
2018-Feb-12 22:00N 37°54' W 009°11'1 3.0
2018-Feb-12 21:30N 37°53' W 009°10'2 3.0
2018-Feb-12 20:59N 37°51' W 009°10'1 2.9
2018-Feb-12 20:30N 37°50' W 009°09'1 2.9
2018-Feb-12 20:00N 37°48' W 009°09'1 1.4
2018-Feb-12 19:27N 37°48' W 009°09'2 4.9
2018-Feb-12 19:00N 37°50' W 009°09'1 2.1
2018-Feb-12 18:30N 37°51' W 009°08'1 2.7
2018-Feb-12 18:00N 37°50' W 009°08'1 2.8
2018-Feb-12 17:30N 37°48' W 009°08'3 2.9
2018-Feb-12 16:30N 37°45' W 009°09'4 2.4
2018-Feb-12 14:43N 37°49' W 009°08'1 2.6
2018-Feb-12 14:30N 37°50' W 009°08'1 2.3
2018-Feb-12 14:00N 37°51' W 009°09'1 2.4
2018-Feb-12 13:30N 37°50' W 009°09'1 2.9
2018-Feb-12 13:00N 37°48' W 009°08'3 3.3
2018-Feb-12 12:05N 37°45' W 009°08'3 2.4
2018-Feb-12 11:00N 37°48' W 009°09'2 3.2
2018-Feb-12 10:30N 37°50' W 009°09'0 0.7
2018-Feb-12 10:00N 37°49' W 009°09'1 2.9
2018-Feb-12 09:30N 37°48' W 009°09'1 0.4
2018-Feb-12 07:50N 37°48' W 009°08'1 3.1
2018-Feb-12 07:30N 37°49' W 009°08'2 3.9
2018-Feb-12 07:00N 37°51' W 009°09'2 3.4
2018-Feb-12 06:25N 37°52' W 009°06'3 6.5
2018-Feb-12 06:00N 37°53' W 009°03'3 6.3
2018-Feb-12 05:30N 37°54' W 008°59'3 6.4
2018-Feb-12 05:00N 37°55' W 008°56'3 6.3
2018-Feb-12 04:30N 37°57' W 008°52'0 0.8
2018-Feb-12 04:00N 37°57' W 008°52'0 0.0
2018-Feb-12 03:30N 37°57' W 008°52'0 0.0
2018-Feb-12 03:00N 37°57' W 008°52'0 0.0
2018-Feb-12 02:30N 37°57' W 008°52'0 0.0
2018-Feb-12 02:00N 37°57' W 008°52'0 0.0
2018-Feb-12 01:30N 37°57' W 008°52'0 0.0
2018-Feb-12 01:00N 37°57' W 008°52'0 0.0
2018-Feb-12 00:30N 37°57' W 008°52'0 0.0
2018-Feb-12 00:00N 37°57' W 008°52'0 0.0
2018-Feb-11 23:30N 37°57' W 008°52'0 0.0
2018-Feb-11 23:00N 37°57' W 008°52'0 0.0
2018-Feb-11 22:30N 37°57' W 008°52'0 0.0
2018-Feb-11 22:00N 37°57' W 008°52'0 0.0
2018-Feb-11 21:30N 37°57' W 008°52'0 0.0
2018-Feb-11 21:00N 37°57' W 008°52'0 0.0
2018-Feb-11 20:30N 37°57' W 008°52'0 0.0
2018-Feb-11 20:00N 37°57' W 008°52'0 0.0
2018-Feb-11 19:30N 37°57' W 008°52'0 0.5
2018-Feb-11 19:00N 37°57' W 008°52'4 8.3
2018-Feb-11 18:30N 37°54' W 008°56'4 8.2
2018-Feb-11 18:00N 37°52' W 009°01'4 8.3
2018-Feb-11 17:30N 37°51' W 009°06'2 4.8
2018-Feb-11 17:00N 37°50' W 009°08'1 2.0
2018-Feb-11 16:30N 37°49' W 009°08'2 2.8
2018-Feb-11 15:58N 37°47' W 009°08'2 3.8
2018-Feb-11 15:30N 37°46' W 009°08'2 2.7
2018-Feb-11 14:36N 37°48' W 009°08'0 3.0
2018-Feb-11 14:30N 37°48' W 009°08'1 2.8
2018-Feb-11 14:00N 37°50' W 009°08'2 2.9
2018-Feb-11 13:29N 37°51' W 009°09'1 2.9
2018-Feb-11 12:59N 37°50' W 009°09'1 2.8
2018-Feb-11 12:30N 37°48' W 009°09'1 0.6
2018-Feb-11 11:10N 37°47' W 009°09'0 3.1
2018-Feb-11 11:00N 37°48' W 009°09'2 4.0
2018-Feb-11 10:30N 37°50' W 009°09'0 0.5
2018-Feb-11 10:00N 37°50' W 009°09'1 2.9
2018-Feb-11 09:30N 37°48' W 009°09'1 0.4
2018-Feb-11 07:56N 37°48' W 009°08'1 3.0
2018-Feb-11 07:30N 37°49' W 009°08'2 3.0
2018-Feb-11 06:59N 37°51' W 009°09'0 0.2
2018-Feb-11 06:27N 37°51' W 009°09'1 3.0
2018-Feb-11 06:00N 37°50' W 009°09'2 3.4
2018-Feb-11 05:30N 37°48' W 009°09'5 0.7
2018-Feb-10 22:25N 37°48' W 009°15'1 1.5
2018-Feb-10 21:57N 37°49' W 009°15'1 2.4
2018-Feb-10 21:29N 37°50' W 009°15'2 2.1
2018-Feb-10 20:45N 37°50' W 009°13'1 1.9
2018-Feb-10 20:29N 37°51' W 009°12'1 1.8
2018-Feb-10 20:00N 37°51' W 009°11'1 1.9
2018-Feb-10 19:30N 37°51' W 009°10'1 1.9
2018-Feb-10 19:00N 37°51' W 009°09'0 0.2
2018-Feb-10 18:30N 37°51' W 009°09'1 2.6
2018-Feb-10 18:00N 37°50' W 009°09'1 2.6
2018-Feb-10 17:30N 37°48' W 009°08'0 0.1
2018-Feb-10 15:26N 37°48' W 009°08'1 2.8
2018-Feb-10 15:00N 37°49' W 009°08'2 3.4
2018-Feb-10 14:30N 37°51' W 009°09'0 0.8
2018-Feb-10 14:00N 37°51' W 009°09'1 2.9
2018-Feb-10 13:30N 37°50' W 009°09'1 2.8
2018-Feb-10 13:00N 37°48' W 009°09'1 0.5
2018-Feb-10 11:09N 37°48' W 009°08'0 2.9
2018-Feb-10 10:59N 37°49' W 009°08'1 2.8
2018-Feb-10 10:30N 37°50' W 009°09'1 1.0
2018-Feb-10 10:00N 37°49' W 009°09'1 2.6
2018-Feb-10 09:30N 37°48' W 009°09'1 0.5
2018-Feb-10 07:56N 37°48' W 009°08'1 2.9
2018-Feb-10 07:30N 37°49' W 009°08'2 3.4
2018-Feb-10 07:00N 37°51' W 009°09'0 0.6
2018-Feb-10 06:30N 37°50' W 009°09'0 0.1
2018-Feb-10 06:01N 37°50' W 009°09'0 0.5
2018-Feb-10 05:30N 37°51' W 009°09'0 0.5
2018-Feb-10 04:59N 37°51' W 009°09'0 1.0
2018-Feb-10 04:31N 37°51' W 009°10'1 2.7
2018-Feb-10 04:01N 37°50' W 009°11'  
Track history (hours):
 
Tides and Currents Weather Stations Pressure Air Temp Water Temp Dewpoint Dewpoint Depression Visibility Wind Speed Wind Dir Waves Ship Positions

Florimax

Last reported at 2018-Feb-20 04:00 UTC. Time now 2018-Feb-20 04:21 UTC.
Position N 37°43' W 009°09'.

Length 24 m.

Type: Fishing. MMSI: 263412470.

Date/timePositionNaut miles runAvg speedWind from/ knotsBaromVisibWave heightAir tempDewpointWater temp
2018-Feb-20 04:00N 37°43' W 009°09'0 0.4
2018-Feb-20 02:42N 37°43' W 009°09'5 1.4
2018-Feb-19 23:13N 37°48' W 009°08'1 3.1
2018-Feb-19 22:56N 37°49' W 009°08'1 3.0
2018-Feb-19 22:30N 37°50' W 009°08'2 3.1
2018-Feb-19 22:00N 37°51' W 009°08'1 2.9
2018-Feb-19 21:30N 37°53' W 009°08'2 3.3
2018-Feb-19 21:00N 37°51' W 009°09'0 0.5
2018-Feb-19 20:30N 37°51' W 009°08'1 2.8
2018-Feb-19 20:00N 37°50' W 009°08'1 2.7
2018-Feb-19 19:30N 37°48' W 009°08'1 2.7
2018-Feb-19 18:59N 37°47' W 009°08'2 3.2
2018-Feb-19 18:30N 37°45' W 009°09'6 2.3
2018-Feb-19 15:53N 37°51' W 009°13'3 0.5
2018-Feb-19 09:52N 37°54' W 009°14'1 2.7
2018-Feb-19 09:30N 37°53' W 009°14'2 3.0
2018-Feb-19 08:59N 37°51' W 009°13'3 5.8
2018-Feb-19 08:24N 37°52' W 009°09'0 0.9
2018-Feb-19 08:00N 37°52' W 009°09'1 3.0
2018-Feb-19 07:30N 37°51' W 009°08'1 2.8
2018-Feb-19 07:00N 37°49' W 009°08'1 2.9
2018-Feb-19 06:30N 37°48' W 009°08'1 2.8
2018-Feb-19 06:00N 37°46' W 009°08'2 3.1
2018-Feb-19 05:30N 37°45' W 009°09'3 2.7
2018-Feb-19 04:20N 37°46' W 009°05'2 7.4
2018-Feb-19 04:00N 37°48' W 009°03'4 7.8
2018-Feb-19 03:30N 37°51' W 008°60'4 7.8
2018-Feb-19 03:00N 37°53' W 008°56'4 7.5
2018-Feb-19 02:30N 37°56' W 008°53'1 2.1
2018-Feb-19 02:00N 37°57' W 008°52'0 0.0
2018-Feb-19 01:30N 37°57' W 008°52'0 0.0
2018-Feb-19 01:00N 37°57' W 008°52'0 0.0
2018-Feb-19 00:30N 37°57' W 008°52'0 0.0
2018-Feb-19 00:00N 37°57' W 008°52'0 0.0
2018-Feb-18 23:30N 37°57' W 008°52'0 0.0
2018-Feb-18 23:00N 37°57' W 008°52'0 0.0
2018-Feb-18 22:30N 37°57' W 008°52'0 0.0
2018-Feb-18 22:00N 37°57' W 008°52'0 0.0
2018-Feb-18 21:29N 37°57' W 008°52'0 0.0
2018-Feb-18 21:00N 37°57' W 008°52'0 0.0
2018-Feb-18 20:30N 37°57' W 008°52'0 0.0
2018-Feb-18 20:00N 37°57' W 008°52'0 0.0
2018-Feb-18 19:30N 37°57' W 008°52'0 0.0
2018-Feb-18 19:00N 37°57' W 008°52'2 5.0
2018-Feb-18 18:30N 37°56' W 008°55'4 8.5
2018-Feb-18 18:00N 37°54' W 008°60'4 8.3
2018-Feb-18 17:30N 37°53' W 009°05'3 5.7
2018-Feb-18 17:00N 37°53' W 009°08'1 1.9
2018-Feb-18 16:30N 37°52' W 009°09'1 2.8
2018-Feb-18 16:00N 37°50' W 009°08'1 2.9
2018-Feb-18 15:30N 37°49' W 009°08'3 2.7
2018-Feb-18 14:25N 37°46' W 009°09'0 0.5
2018-Feb-18 13:57N 37°46' W 009°09'2 2.4
2018-Feb-18 13:01N 37°48' W 009°08'0 3.0
2018-Feb-18 13:00N 37°48' W 009°08'1 3.0
2018-Feb-18 12:30N 37°49' W 009°08'1 2.9
2018-Feb-18 12:00N 37°51' W 009°09'2 3.8
2018-Feb-18 11:30N 37°53' W 009°09'0 0.9
2018-Feb-18 11:00N 37°53' W 009°09'1 2.8
2018-Feb-18 10:30N 37°51' W 009°09'1 2.7
2018-Feb-18 10:00N 37°50' W 009°09'1 2.7
2018-Feb-18 09:30N 37°49' W 009°08'1 0.8
2018-Feb-18 08:33N 37°48' W 009°08'0 3.0
2018-Feb-18 08:30N 37°48' W 009°08'1 3.0
2018-Feb-18 08:00N 37°49' W 009°08'2 3.1
2018-Feb-18 07:30N 37°51' W 009°09'2 3.1
2018-Feb-18 07:00N 37°52' W 009°09'1 2.1
2018-Feb-18 06:30N 37°53' W 009°10'0 0.4
2018-Feb-18 06:00N 37°54' W 009°10'0 0.4
2018-Feb-18 05:30N 37°54' W 009°09'1 2.1
2018-Feb-18 05:00N 37°53' W 009°09'0 0.2
2018-Feb-18 04:30N 37°53' W 009°09'0 0.8
2018-Feb-18 04:00N 37°53' W 009°09'0 0.6
2018-Feb-18 03:30N 37°53' W 009°09'0 0.6
2018-Feb-18 03:00N 37°53' W 009°09'2 3.2
2018-Feb-18 02:30N 37°55' W 009°09'2 3.3
2018-Feb-18 02:00N 37°57' W 009°09'2 3.2
2018-Feb-18 01:30N 37°58' W 009°09'2 3.1
2018-Feb-18 01:00N 37°60' W 009°09'2 3.2
2018-Feb-18 00:30N 38°01' W 009°09'2 3.0
2018-Feb-18 00:00N 38°03' W 009°09'1 2.4
2018-Feb-17 23:30N 38°04' W 009°09'1 1.2
2018-Feb-17 23:00N 38°04' W 009°09'2 3.1
2018-Feb-17 22:29N 38°02' W 009°09'1 3.0
2018-Feb-17 22:00N 38°01' W 009°10'1 3.0
2018-Feb-17 21:30N 37°59' W 009°10'2 3.0
2018-Feb-17 21:00N 37°58' W 009°10'2 3.1
2018-Feb-17 20:29N 37°56' W 009°11'2 3.1
2018-Feb-17 20:00N 37°55' W 009°11'2 4.2
2018-Feb-17 19:30N 37°53' W 009°12'2 3.3
2018-Feb-17 18:52N 37°52' W 009°09'0 1.2
2018-Feb-17 18:30N 37°51' W 009°09'1 2.8
2018-Feb-17 18:00N 37°50' W 009°09'1 2.8
2018-Feb-17 17:30N 37°49' W 009°08'1 0.5
2018-Feb-17 16:24N 37°48' W 009°08'1 2.9
2018-Feb-17 16:00N 37°49' W 009°08'1 2.9
2018-Feb-17 15:30N 37°51' W 009°09'1 2.9
2018-Feb-17 15:00N 37°52' W 009°09'1 1.8
2018-Feb-17 14:30N 37°53' W 009°09'1 2.2
2018-Feb-17 14:00N 37°52' W 009°09'1 2.9
2018-Feb-17 13:30N 37°50' W 009°09'1 3.0
2018-Feb-17 13:00N 37°49' W 009°08'1 0.8
2018-Feb-17 11:48N 37°48' W 009°08'1 3.1
2018-Feb-17 11:26N 37°49' W 009°08'1 3.0
2018-Feb-17 11:00N 37°50' W 009°09'1 2.7
2018-Feb-17 10:30N 37°52' W 009°09'1 1.1
2018-Feb-17 10:00N 37°51' W 009°09'1 2.8
2018-Feb-17 09:30N 37°50' W 009°09'1 2.7
2018-Feb-17 09:00N 37°48' W 009°09'0 0.7
2018-Feb-17 08:21N 37°49' W 009°08'1 3.0
2018-Feb-17 08:00N 37°50' W 009°08'2 3.1
2018-Feb-17 07:30N 37°51' W 009°09'1 3.0
2018-Feb-17 07:00N 37°53' W 009°09'1 1.7
2018-Feb-17 06:30N 37°53' W 009°10'2 4.2
2018-Feb-17 06:00N 37°52' W 009°12'5 0.4
2018-Feb-16 19:38N 37°48' W 009°08'1 7.1
2018-Feb-16 19:30N 37°49' W 009°09'3 6.6
2018-Feb-16 19:00N 37°52' W 009°10'1 1.4
2018-Feb-16 18:30N 37°53' W 009°09'1 2.7
2018-Feb-16 18:00N 37°52' W 009°09'1 2.9
2018-Feb-16 17:30N 37°50' W 009°09'1 2.9
2018-Feb-16 17:00N 37°49' W 009°08'1 0.8
2018-Feb-16 15:51N 37°48' W 009°08'1 3.1
2018-Feb-16 15:29N 37°49' W 009°08'1 3.0
2018-Feb-16 15:00N 37°51' W 009°09'2 3.1
2018-Feb-16 14:30N 37°52' W 009°09'1 1.7
2018-Feb-16 14:00N 37°53' W 009°09'1 2.6
2018-Feb-16 13:30N 37°52' W 009°09'1 3.0
2018-Feb-16 13:00N 37°50' W 009°09'1 2.9
2018-Feb-16 12:30N 37°49' W 009°08'1 0.6
2018-Feb-16 11:22N 37°48' W 009°08'1 2.9
2018-Feb-16 10:59N 37°49' W 009°08'1 3.0
2018-Feb-16 10:30N 37°51' W 009°09'1 1.1
2018-Feb-16 10:00N 37°50' W 009°09'1 2.7
2018-Feb-16 09:30N 37°49' W 009°08'3 3.1
2018-Feb-16 08:26N 37°45' W 009°08'3 3.0
2018-Feb-16 07:22N 37°49' W 009°08'1 2.8
2018-Feb-16 07:00N 37°50' W 009°09'1 1.8
2018-Feb-16 06:30N 37°50' W 009°09'3 5.7
2018-Feb-16 06:00N 37°52' W 009°05'3 6.8
2018-Feb-16 05:30N 37°53' W 009°01'4 7.0
2018-Feb-16 05:00N 37°55' W 008°57'3 6.9
2018-Feb-16 04:30N 37°56' W 008°53'1 2.8
2018-Feb-16 04:00N 37°57' W 008°52'0 0.0
2018-Feb-16 03:30N 37°57' W 008°52'0 0.0
2018-Feb-16 03:00N 37°57' W 008°52'0 0.0
2018-Feb-16 02:30N 37°57' W 008°52'0 0.0
2018-Feb-16 02:00N 37°57' W 008°52'0 0.0
2018-Feb-16 01:30N 37°57' W 008°52'0 0.0
2018-Feb-16 01:00N 37°57' W 008°52'0 0.0
2018-Feb-16 00:30N 37°57' W 008°52'0 0.0
2018-Feb-16 00:00N 37°57' W 008°52'0 0.0
2018-Feb-15 23:30N 37°57' W 008°52'0 0.0
2018-Feb-15 23:00N 37°57' W 008°52'0 0.0
2018-Feb-15 22:30N 37°57' W 008°52'0 0.0
2018-Feb-15 22:00N 37°57' W 008°52'0 0.0
2018-Feb-15 21:30N 37°57' W 008°52'0 0.0
2018-Feb-15 21:00N 37°57' W 008°52'0 0.0
2018-Feb-15 20:30N 37°57' W 008°52'2 4.2
2018-Feb-15 20:00N 37°56' W 008°54'4 8.2
2018-Feb-15 19:30N 37°54' W 008°59'4 8.1
2018-Feb-15 19:00N 37°53' W 009°04'4 7.7
2018-Feb-15 18:30N 37°51' W 009°08'0 0.5
2018-Feb-15 18:00N 37°51' W 009°09'2 3.0
2018-Feb-15 17:29N 37°50' W 009°09'1 3.0
2018-Feb-15 17:00N 37°48' W 009°08'2 0.2
2018-Feb-15 06:50N 37°51' W 009°09'1 2.2
2018-Feb-15 06:30N 37°51' W 009°09'0 0.5
2018-Feb-15 06:00N 37°51' W 009°08'0 0.2
2018-Feb-15 05:29N 37°51' W 009°08'0 0.2
2018-Feb-15 05:00N 37°51' W 009°09'0 0.3
2018-Feb-15 04:30N 37°51' W 009°09'0 0.4
2018-Feb-15 04:00N 37°52' W 009°09'1 1.3
2018-Feb-15 03:30N 37°52' W 009°09'1 1.9
2018-Feb-15 03:00N 37°53' W 009°08'2 3.3
2018-Feb-15 02:30N 37°55' W 009°08'2 3.4
2018-Feb-15 02:00N 37°56' W 009°08'2 3.4
2018-Feb-15 01:30N 37°58' W 009°08'2 3.3
2018-Feb-15 01:00N 37°60' W 009°08'2 3.0
2018-Feb-15 00:30N 38°01' W 009°08'1 2.4
2018-Feb-15 00:00N 38°02' W 009°09'1 1.5
2018-Feb-14 23:30N 38°02' W 009°09'2 3.1
2018-Feb-14 23:00N 38°00' W 009°09'2 3.1
2018-Feb-14 22:30N 37°59' W 009°10'1 3.0
2018-Feb-14 22:00N 37°57' W 009°10'1 2.8
2018-Feb-14 21:30N 37°56' W 009°11'1 2.7
2018-Feb-14 21:00N 37°55' W 009°11'1 2.8
2018-Feb-14 20:30N 37°53' W 009°10'2 3.1
2018-Feb-14 20:00N 37°52' W 009°10'1 1.1
2018-Feb-14 19:30N 37°51' W 009°10'1 2.2
2018-Feb-14 18:55N 37°52' W 009°09'0 0.5
2018-Feb-14 18:30N 37°52' W 009°09'1 2.9
2018-Feb-14 18:00N 37°51' W 009°09'1 2.9
2018-Feb-14 17:30N 37°49' W 009°08'1 3.0
2018-Feb-14 17:00N 37°48' W 009°08'2 3.0
2018-Feb-14 16:27N 37°46' W 009°08'3 1.5
2018-Feb-14 14:49N 37°49' W 009°08'1 3.0
2018-Feb-14 14:30N 37°49' W 009°08'1 2.7
2018-Feb-14 14:00N 37°51' W 009°09'1 2.0
2018-Feb-14 13:30N 37°50' W 009°09'2 3.0
2018-Feb-14 13:00N 37°48' W 009°08'1 0.3
2018-Feb-14 11:12N 37°48' W 009°08'1 3.0
2018-Feb-14 11:00N 37°48' W 009°08'2 3.6
2018-Feb-14 10:29N 37°50' W 009°08'1 1.3
2018-Feb-14 10:00N 37°50' W 009°09'1 2.9
2018-Feb-14 09:30N 37°48' W 009°08'0 0.2
2018-Feb-14 07:52N 37°48' W 009°08'1 3.0
2018-Feb-14 07:30N 37°49' W 009°08'2 3.2
2018-Feb-14 07:00N 37°50' W 009°08'3 4.9
2018-Feb-14 06:28N 37°52' W 009°06'3 7.2
2018-Feb-14 06:00N 37°53' W 009°02'3 7.0
2018-Feb-14 05:30N 37°55' W 008°58'3 6.8
2018-Feb-14 05:00N 37°56' W 008°54'2 3.9
2018-Feb-14 04:30N 37°57' W 008°52'0 0.0
2018-Feb-14 04:00N 37°57' W 008°52'0 0.0
2018-Feb-14 03:30N 37°57' W 008°52'0 0.0
2018-Feb-14 03:00N 37°57' W 008°52'0 0.0
2018-Feb-14 02:30N 37°57' W 008°52'0 0.0
2018-Feb-14 02:00N 37°57' W 008°52'0 0.0
2018-Feb-14 01:30N 37°57' W 008°52'0 0.0
2018-Feb-14 01:00N 37°57' W 008°52'0 0.0
2018-Feb-14 00:30N 37°57' W 008°52'0 0.0
2018-Feb-14 00:00N 37°57' W 008°52'0 0.0
2018-Feb-13 23:30N 37°57' W 008°52'0 0.0
2018-Feb-13 23:00N 37°57' W 008°52'0 0.0
2018-Feb-13 22:30N 37°57' W 008°52'0 0.0
2018-Feb-13 22:00N 37°57' W 008°52'0 0.0
2018-Feb-13 21:30N 37°57' W 008°52'0 0.0
2018-Feb-13 21:00N 37°57' W 008°52'0 0.0
2018-Feb-13 20:30N 37°57' W 008°52'1 2.0
2018-Feb-13 20:00N 37°56' W 008°53'4 8.2
2018-Feb-13 19:29N 37°54' W 008°58'4 8.2
2018-Feb-13 19:00N 37°53' W 009°02'4 8.3
2018-Feb-13 18:30N 37°52' W 009°07'1 2.0
2018-Feb-13 18:00N 37°51' W 009°08'2 3.0
2018-Feb-13 17:30N 37°50' W 009°08'2 3.0
2018-Feb-13 17:00N 37°48' W 009°08'0 0.0
2018-Feb-13 14:50N 37°48' W 009°08'1 2.9
2018-Feb-13 14:30N 37°49' W 009°08'1 2.0
2018-Feb-13 14:00N 37°50' W 009°09'1 1.7
2018-Feb-13 13:30N 37°49' W 009°08'1 0.5
2018-Feb-13 11:04N 37°48' W 009°08'0 3.0
2018-Feb-13 11:00N 37°48' W 009°08'2 3.5
2018-Feb-13 10:30N 37°50' W 009°08'1 1.4
2018-Feb-13 10:00N 37°50' W 009°09'1 2.7
2018-Feb-13 09:30N 37°49' W 009°09'3 3.2
2018-Feb-13 08:36N 37°46' W 009°09'4 2.5
2018-Feb-13 07:09N 37°49' W 009°08'1 5.4
2018-Feb-13 07:00N 37°50' W 009°09'1 1.9
2018-Feb-13 06:30N 37°50' W 009°10'2 3.6
2018-Feb-13 05:59N 37°50' W 009°12'3 1.9
2018-Feb-13 04:22N 37°51' W 009°16'1 3.0
2018-Feb-13 04:00N 37°52' W 009°15'1 3.0
2018-Feb-13 03:30N 37°54' W 009°16'2 2.9
2018-Feb-13 02:59N 37°55' W 009°16'2 2.8
2018-Feb-13 02:14N 37°57' W 009°15'1 2.8
2018-Feb-13 02:00N 37°58' W 009°15'1 2.7
2018-Feb-13 01:30N 37°59' W 009°14'1 2.8
2018-Feb-13 01:00N 38°00' W 009°13'3 4.3
2018-Feb-13 00:22N 38°00' W 009°09'0 0.7
2018-Feb-13 00:00N 38°00' W 009°09'2 3.1
2018-Feb-12 23:30N 37°59' W 009°10'2 3.0
2018-Feb-12 23:00N 37°57' W 009°10'2 3.0
2018-Feb-12 22:26N 37°55' W 009°11'1 3.0
2018-Feb-12 22:00N 37°54' W 009°11'1 3.0
2018-Feb-12 21:30N 37°53' W 009°10'2 3.0
2018-Feb-12 20:59N 37°51' W 009°10'1 2.9
2018-Feb-12 20:30N 37°50' W 009°09'1 2.9
2018-Feb-12 20:00N 37°48' W 009°09'1 1.4
2018-Feb-12 19:27N 37°48' W 009°09'2 4.9
2018-Feb-12 19:00N 37°50' W 009°09'1 2.1
2018-Feb-12 18:30N 37°51' W 009°08'1 2.7
2018-Feb-12 18:00N 37°50' W 009°08'1 2.8
2018-Feb-12 17:30N 37°48' W 009°08'3 2.9
2018-Feb-12 16:30N 37°45' W 009°09'4 2.4
2018-Feb-12 14:43N 37°49' W 009°08'1 2.6
2018-Feb-12 14:30N 37°50' W 009°08'1 2.3
2018-Feb-12 14:00N 37°51' W 009°09'1 2.4
2018-Feb-12 13:30N 37°50' W 009°09'1 2.9
2018-Feb-12 13:00N 37°48' W 009°08'3 3.3
2018-Feb-12 12:05N 37°45' W 009°08'3 2.4
2018-Feb-12 11:00N 37°48' W 009°09'2 3.2
2018-Feb-12 10:30N 37°50' W 009°09'0 0.7
2018-Feb-12 10:00N 37°49' W 009°09'1 2.9
2018-Feb-12 09:30N 37°48' W 009°09'1 0.4
2018-Feb-12 07:50N 37°48' W 009°08'1 3.1
2018-Feb-12 07:30N 37°49' W 009°08'2 3.9
2018-Feb-12 07:00N 37°51' W 009°09'2 3.4
2018-Feb-12 06:25N 37°52' W 009°06'3 6.5
2018-Feb-12 06:00N 37°53' W 009°03'3 6.3
2018-Feb-12 05:30N 37°54' W 008°59'3 6.4
2018-Feb-12 05:00N 37°55' W 008°56'3 6.3
2018-Feb-12 04:30N 37°57' W 008°52'0 0.8
2018-Feb-12 04:00N 37°57' W 008°52'0 0.0
2018-Feb-12 03:30N 37°57' W 008°52'0 0.0
2018-Feb-12 03:00N 37°57' W 008°52'0 0.0
2018-Feb-12 02:30N 37°57' W 008°52'0 0.0
2018-Feb-12 02:00N 37°57' W 008°52'0 0.0
2018-Feb-12 01:30N 37°57' W 008°52'0 0.0
2018-Feb-12 01:00N 37°57' W 008°52'0 0.0
2018-Feb-12 00:30N 37°57' W 008°52'0 0.0
2018-Feb-12 00:00N 37°57' W 008°52'0 0.0
2018-Feb-11 23:30N 37°57' W 008°52'0 0.0
2018-Feb-11 23:00N 37°57' W 008°52'0 0.0
2018-Feb-11 22:30N 37°57' W 008°52'0 0.0
2018-Feb-11 22:00N 37°57' W 008°52'0 0.0
2018-Feb-11 21:30N 37°57' W 008°52'0 0.0
2018-Feb-11 21:00N 37°57' W 008°52'0 0.0
2018-Feb-11 20:30N 37°57' W 008°52'0 0.0
2018-Feb-11 20:00N 37°57' W 008°52'0 0.0
2018-Feb-11 19:30N 37°57' W 008°52'0 0.5
2018-Feb-11 19:00N 37°57' W 008°52'4 8.3
2018-Feb-11 18:30N 37°54' W 008°56'4 8.2
2018-Feb-11 18:00N 37°52' W 009°01'4 8.3
2018-Feb-11 17:30N 37°51' W 009°06'2 4.8
2018-Feb-11 17:00N 37°50' W 009°08'1 2.0
2018-Feb-11 16:30N 37°49' W 009°08'2 2.8
2018-Feb-11 15:58N 37°47' W 009°08'2 3.8
2018-Feb-11 15:30N 37°46' W 009°08'2 2.7
2018-Feb-11 14:36N 37°48' W 009°08'0 3.0
2018-Feb-11 14:30N 37°48' W 009°08'1 2.8
2018-Feb-11 14:00N 37°50' W 009°08'2 2.9
2018-Feb-11 13:29N 37°51' W 009°09'1 2.9
2018-Feb-11 12:59N 37°50' W 009°09'1 2.8
2018-Feb-11 12:30N 37°48' W 009°09'1 0.6
2018-Feb-11 11:10N 37°47' W 009°09'0 3.1
2018-Feb-11 11:00N 37°48' W 009°09'2 4.0
2018-Feb-11 10:30N 37°50' W 009°09'0 0.5
2018-Feb-11 10:00N 37°50' W 009°09'1 2.9
2018-Feb-11 09:30N 37°48' W 009°09'1 0.4
2018-Feb-11 07:56N 37°48' W 009°08'1 3.0
2018-Feb-11 07:30N 37°49' W 009°08'2 3.0
2018-Feb-11 06:59N 37°51' W 009°09'0 0.2
2018-Feb-11 06:27N 37°51' W 009°09'1 3.0
2018-Feb-11 06:00N 37°50' W 009°09'2 3.4
2018-Feb-11 05:30N 37°48' W 009°09'5 0.7
2018-Feb-10 22:25N 37°48' W 009°15'1 1.5
2018-Feb-10 21:57N 37°49' W 009°15'1 2.4
2018-Feb-10 21:29N 37°50' W 009°15'2 2.1
2018-Feb-10 20:45N 37°50' W 009°13'1 1.9
2018-Feb-10 20:29N 37°51' W 009°12'1 1.8
2018-Feb-10 20:00N 37°51' W 009°11'1 1.9
2018-Feb-10 19:30N 37°51' W 009°10'1 1.9
2018-Feb-10 19:00N 37°51' W 009°09'0 0.2
2018-Feb-10 18:30N 37°51' W 009°09'1 2.6
2018-Feb-10 18:00N 37°50' W 009°09'1 2.6
2018-Feb-10 17:30N 37°48' W 009°08'0 0.1
2018-Feb-10 15:26N 37°48' W 009°08'1 2.8
2018-Feb-10 15:00N 37°49' W 009°08'2 3.4
2018-Feb-10 14:30N 37°51' W 009°09'0 0.8
2018-Feb-10 14:00N 37°51' W 009°09'1 2.9
2018-Feb-10 13:30N 37°50' W 009°09'1 2.8
2018-Feb-10 13:00N 37°48' W 009°09'1 0.5
2018-Feb-10 11:09N 37°48' W 009°08'0 2.9
2018-Feb-10 10:59N 37°49' W 009°08'1 2.8
2018-Feb-10 10:30N 37°50' W 009°09'1 1.0
2018-Feb-10 10:00N 37°49' W 009°09'1 2.6
2018-Feb-10 09:30N 37°48' W 009°09'1 0.5
2018-Feb-10 07:56N 37°48' W 009°08'1 2.9
2018-Feb-10 07:30N 37°49' W 009°08'2 3.4
2018-Feb-10 07:00N 37°51' W 009°09'0 0.6
2018-Feb-10 06:30N 37°50' W 009°09'0 0.1
2018-Feb-10 06:01N 37°50' W 009°09'0 0.5
2018-Feb-10 05:30N 37°51' W 009°09'0 0.5
2018-Feb-10 04:59N 37°51' W 009°09'0 1.0
2018-Feb-10 04:31N 37°51' W 009°10'1 2.7
2018-Feb-10 04:01N 37°50' W 009°11'  

Dump ship's entire track history